sensor_id;sensor_type;location;lat;lon;timestamp;P1;durP1;ratioP1;P2;durP2;ratioP2
72899;SDS011;61043;52.036;5.566;2022-07-19T00:02:07;7.68;;;6.40;;
72899;SDS011;61043;52.036;5.566;2022-07-19T00:04:33;10.95;;;6.93;;
72899;SDS011;61043;52.036;5.566;2022-07-19T00:07:01;10.88;;;6.95;;
72899;SDS011;61043;52.036;5.566;2022-07-19T00:09:29;13.63;;;7.22;;
72899;SDS011;61043;52.036;5.566;2022-07-19T00:11:56;11.13;;;6.53;;
72899;SDS011;61043;52.036;5.566;2022-07-19T00:14:23;8.13;;;6.43;;
72899;SDS011;61043;52.036;5.566;2022-07-19T00:16:50;9.68;;;7.18;;
72899;SDS011;61043;52.036;5.566;2022-07-19T00:19:17;11.05;;;6.70;;
72899;SDS011;61043;52.036;5.566;2022-07-19T00:21:43;8.13;;;6.70;;
72899;SDS011;61043;52.036;5.566;2022-07-19T00:24:10;12.30;;;6.57;;
72899;SDS011;61043;52.036;5.566;2022-07-19T00:26:37;9.10;;;6.10;;
72899;SDS011;61043;52.036;5.566;2022-07-19T00:29:03;11.40;;;6.82;;
72899;SDS011;61043;52.036;5.566;2022-07-19T00:31:30;11.52;;;6.80;;
72899;SDS011;61043;52.036;5.566;2022-07-19T00:33:57;9.38;;;6.80;;
72899;SDS011;61043;52.036;5.566;2022-07-19T00:36:24;9.43;;;6.45;;
72899;SDS011;61043;52.036;5.566;2022-07-19T00:38:50;14.35;;;6.85;;
72899;SDS011;61043;52.036;5.566;2022-07-19T00:41:17;8.60;;;7.07;;
72899;SDS011;61043;52.036;5.566;2022-07-19T00:43:44;10.43;;;7.68;;
72899;SDS011;61043;52.036;5.566;2022-07-19T00:46:11;10.20;;;7.10;;
72899;SDS011;61043;52.036;5.566;2022-07-19T00:48:42;11.27;;;7.70;;
72899;SDS011;61043;52.036;5.566;2022-07-19T00:51:09;9.45;;;7.25;;
72899;SDS011;61043;52.036;5.566;2022-07-19T00:53:37;13.38;;;6.93;;
72899;SDS011;61043;52.036;5.566;2022-07-19T00:56:05;10.90;;;7.75;;
72899;SDS011;61043;52.036;5.566;2022-07-19T00:58:33;12.30;;;8.38;;
72899;SDS011;61043;52.036;5.566;2022-07-19T01:01:02;11.35;;;8.45;;
72899;SDS011;61043;52.036;5.566;2022-07-19T01:03:30;10.88;;;8.95;;
72899;SDS011;61043;52.036;5.566;2022-07-19T01:05:57;8.75;;;7.55;;
72899;SDS011;61043;52.036;5.566;2022-07-19T01:08:24;12.65;;;8.45;;
72899;SDS011;61043;52.036;5.566;2022-07-19T01:10:50;12.40;;;7.75;;
72899;SDS011;61043;52.036;5.566;2022-07-19T01:13:17;10.93;;;8.48;;
72899;SDS011;61043;52.036;5.566;2022-07-19T01:15:44;14.73;;;10.02;;
72899;SDS011;61043;52.036;5.566;2022-07-19T01:18:10;15.18;;;9.95;;
72899;SDS011;61043;52.036;5.566;2022-07-19T01:20:37;11.80;;;8.55;;
72899;SDS011;61043;52.036;5.566;2022-07-19T01:23:04;12.77;;;8.70;;
72899;SDS011;61043;52.036;5.566;2022-07-19T01:25:31;13.20;;;8.65;;
72899;SDS011;61043;52.036;5.566;2022-07-19T01:27:59;10.98;;;8.77;;
72899;SDS011;61043;52.036;5.566;2022-07-19T01:30:26;10.05;;;8.20;;
72899;SDS011;61043;52.036;5.566;2022-07-19T01:32:54;10.55;;;7.15;;
72899;SDS011;61043;52.036;5.566;2022-07-19T01:35:22;12.38;;;8.80;;
72899;SDS011;61043;52.036;5.566;2022-07-19T01:37:50;12.00;;;8.95;;
72899;SDS011;61043;52.036;5.566;2022-07-19T01:40:17;12.18;;;8.70;;
72899;SDS011;61043;52.036;5.566;2022-07-19T01:42:46;9.32;;;8.40;;
72899;SDS011;61043;52.036;5.566;2022-07-19T01:45:13;9.48;;;8.45;;
72899;SDS011;61043;52.036;5.566;2022-07-19T01:47:40;12.05;;;8.30;;
72899;SDS011;61043;52.036;5.566;2022-07-19T01:50:08;10.18;;;8.18;;
72899;SDS011;61043;52.036;5.566;2022-07-19T01:52:37;11.07;;;7.97;;
72899;SDS011;61043;52.036;5.566;2022-07-19T01:55:08;9.68;;;7.50;;
72899;SDS011;61043;52.036;5.566;2022-07-19T01:57:35;10.95;;;8.13;;
72899;SDS011;61043;52.036;5.566;2022-07-19T02:00:02;10.27;;;8.98;;
72899;SDS011;61043;52.036;5.566;2022-07-19T02:02:31;14.65;;;9.40;;
72899;SDS011;61043;52.036;5.566;2022-07-19T02:04:58;9.10;;;8.07;;
72899;SDS011;61043;52.036;5.566;2022-07-19T02:07:24;11.43;;;7.80;;
72899;SDS011;61043;52.036;5.566;2022-07-19T02:09:51;11.93;;;8.80;;
72899;SDS011;61043;52.036;5.566;2022-07-19T02:12:18;10.43;;;8.23;;
72899;SDS011;61043;52.036;5.566;2022-07-19T02:14:44;10.43;;;8.73;;
72899;SDS011;61043;52.036;5.566;2022-07-19T02:17:11;10.48;;;8.95;;
72899;SDS011;61043;52.036;5.566;2022-07-19T02:19:38;11.13;;;8.70;;
72899;SDS011;61043;52.036;5.566;2022-07-19T02:22:04;11.70;;;9.35;;
72899;SDS011;61043;52.036;5.566;2022-07-19T02:24:31;10.00;;;8.27;;
72899;SDS011;61043;52.036;5.566;2022-07-19T02:26:57;9.70;;;7.72;;
72899;SDS011;61043;52.036;5.566;2022-07-19T02:29:24;10.38;;;8.77;;
72899;SDS011;61043;52.036;5.566;2022-07-19T02:31:51;10.80;;;9.52;;
72899;SDS011;61043;52.036;5.566;2022-07-19T02:34:17;11.55;;;9.55;;
72899;SDS011;61043;52.036;5.566;2022-07-19T02:36:44;11.02;;;8.80;;
72899;SDS011;61043;52.036;5.566;2022-07-19T02:39:10;11.70;;;9.95;;
72899;SDS011;61043;52.036;5.566;2022-07-19T02:41:37;12.07;;;9.18;;
72899;SDS011;61043;52.036;5.566;2022-07-19T02:44:03;10.38;;;9.25;;
72899;SDS011;61043;52.036;5.566;2022-07-19T02:46:30;9.25;;;8.23;;
72899;SDS011;61043;52.036;5.566;2022-07-19T02:48:57;12.23;;;9.35;;
72899;SDS011;61043;52.036;5.566;2022-07-19T02:51:23;11.75;;;9.00;;
72899;SDS011;61043;52.036;5.566;2022-07-19T02:53:50;11.60;;;9.23;;
72899;SDS011;61043;52.036;5.566;2022-07-19T02:56:17;11.27;;;9.48;;
72899;SDS011;61043;52.036;5.566;2022-07-19T02:58:44;11.52;;;9.20;;
72899;SDS011;61043;52.036;5.566;2022-07-19T03:01:10;12.50;;;9.48;;
72899;SDS011;61043;52.036;5.566;2022-07-19T03:03:37;13.70;;;9.50;;
72899;SDS011;61043;52.036;5.566;2022-07-19T03:06:10;9.85;;;8.52;;
72899;SDS011;61043;52.036;5.566;2022-07-19T03:08:37;12.57;;;9.02;;
72899;SDS011;61043;52.036;5.566;2022-07-19T03:11:04;13.10;;;10.27;;
72899;SDS011;61043;52.036;5.566;2022-07-19T03:13:31;16.13;;;10.88;;
72899;SDS011;61043;52.036;5.566;2022-07-19T03:15:58;12.23;;;10.60;;
72899;SDS011;61043;52.036;5.566;2022-07-19T03:18:24;13.05;;;9.35;;
72899;SDS011;61043;52.036;5.566;2022-07-19T03:20:51;11.27;;;10.18;;
72899;SDS011;61043;52.036;5.566;2022-07-19T03:23:17;11.35;;;10.10;;
72899;SDS011;61043;52.036;5.566;2022-07-19T03:25:44;13.20;;;10.70;;
72899;SDS011;61043;52.036;5.566;2022-07-19T03:28:11;14.05;;;10.80;;
72899;SDS011;61043;52.036;5.566;2022-07-19T03:30:37;12.68;;;10.65;;
72899;SDS011;61043;52.036;5.566;2022-07-19T03:33:04;12.50;;;11.20;;
72899;SDS011;61043;52.036;5.566;2022-07-19T03:35:30;13.55;;;10.40;;
72899;SDS011;61043;52.036;5.566;2022-07-19T03:37:57;14.95;;;11.82;;
72899;SDS011;61043;52.036;5.566;2022-07-19T03:40:23;14.18;;;11.50;;
72899;SDS011;61043;52.036;5.566;2022-07-19T03:42:50;14.73;;;11.43;;
72899;SDS011;61043;52.036;5.566;2022-07-19T03:45:16;15.55;;;10.30;;
72899;SDS011;61043;52.036;5.566;2022-07-19T03:47:43;14.73;;;10.43;;
72899;SDS011;61043;52.036;5.566;2022-07-19T03:50:09;15.68;;;10.55;;
72899;SDS011;61043;52.036;5.566;2022-07-19T03:52:36;13.88;;;11.90;;
72899;SDS011;61043;52.036;5.566;2022-07-19T03:55:02;17.60;;;12.10;;
72899;SDS011;61043;52.036;5.566;2022-07-19T03:57:29;13.10;;;11.80;;
72899;SDS011;61043;52.036;5.566;2022-07-19T03:59:56;15.93;;;11.57;;
72899;SDS011;61043;52.036;5.566;2022-07-19T04:02:22;12.63;;;11.07;;
72899;SDS011;61043;52.036;5.566;2022-07-19T04:04:49;15.52;;;12.73;;
72899;SDS011;61043;52.036;5.566;2022-07-19T04:07:15;15.63;;;12.82;;
72899;SDS011;61043;52.036;5.566;2022-07-19T04:09:42;12.93;;;11.60;;
72899;SDS011;61043;52.036;5.566;2022-07-19T04:12:08;19.25;;;12.20;;
72899;SDS011;61043;52.036;5.566;2022-07-19T04:14:35;12.65;;;11.20;;
72899;SDS011;61043;52.036;5.566;2022-07-19T04:17:02;15.68;;;13.00;;
72899;SDS011;61043;52.036;5.566;2022-07-19T04:19:31;12.70;;;11.40;;
72899;SDS011;61043;52.036;5.566;2022-07-19T04:21:58;15.20;;;11.38;;
72899;SDS011;61043;52.036;5.566;2022-07-19T04:24:24;14.80;;;12.10;;
72899;SDS011;61043;52.036;5.566;2022-07-19T04:26:51;17.65;;;13.50;;
72899;SDS011;61043;52.036;5.566;2022-07-19T04:29:17;15.93;;;11.25;;
72899;SDS011;61043;52.036;5.566;2022-07-19T04:31:44;13.55;;;11.18;;
72899;SDS011;61043;52.036;5.566;2022-07-19T04:34:11;14.35;;;10.98;;
72899;SDS011;61043;52.036;5.566;2022-07-19T04:36:37;12.13;;;10.55;;
72899;SDS011;61043;52.036;5.566;2022-07-19T04:39:04;14.27;;;10.80;;
72899;SDS011;61043;52.036;5.566;2022-07-19T04:41:30;15.73;;;13.25;;
72899;SDS011;61043;52.036;5.566;2022-07-19T04:43:57;12.70;;;11.35;;
72899;SDS011;61043;52.036;5.566;2022-07-19T04:46:24;14.25;;;11.15;;
72899;SDS011;61043;52.036;5.566;2022-07-19T04:48:50;13.48;;;12.07;;
72899;SDS011;61043;52.036;5.566;2022-07-19T04:51:17;14.13;;;12.27;;
72899;SDS011;61043;52.036;5.566;2022-07-19T04:53:43;14.07;;;11.38;;
72899;SDS011;61043;52.036;5.566;2022-07-19T04:56:10;12.38;;;11.07;;
72899;SDS011;61043;52.036;5.566;2022-07-19T04:58:36;13.70;;;11.18;;
72899;SDS011;61043;52.036;5.566;2022-07-19T05:01:03;15.27;;;11.30;;
72899;SDS011;61043;52.036;5.566;2022-07-19T05:03:29;13.60;;;10.68;;
72899;SDS011;61043;52.036;5.566;2022-07-19T05:05:56;14.95;;;12.45;;
72899;SDS011;61043;52.036;5.566;2022-07-19T05:08:23;14.23;;;12.40;;
72899;SDS011;61043;52.036;5.566;2022-07-19T05:10:49;21.60;;;14.18;;
72899;SDS011;61043;52.036;5.566;2022-07-19T05:13:16;14.95;;;12.00;;
72899;SDS011;61043;52.036;5.566;2022-07-19T05:15:42;18.70;;;12.93;;
72899;SDS011;61043;52.036;5.566;2022-07-19T05:18:09;15.55;;;12.10;;
72899;SDS011;61043;52.036;5.566;2022-07-19T05:20:36;15.18;;;11.07;;
72899;SDS011;61043;52.036;5.566;2022-07-19T05:23:02;17.55;;;11.68;;
72899;SDS011;61043;52.036;5.566;2022-07-19T05:25:29;17.23;;;12.60;;
72899;SDS011;61043;52.036;5.566;2022-07-19T05:27:55;22.98;;;13.82;;
72899;SDS011;61043;52.036;5.566;2022-07-19T05:30:22;22.95;;;13.82;;
72899;SDS011;61043;52.036;5.566;2022-07-19T05:32:49;22.63;;;13.68;;
72899;SDS011;61043;52.036;5.566;2022-07-19T05:35:16;12.02;;;10.55;;
72899;SDS011;61043;52.036;5.566;2022-07-19T05:37:42;14.88;;;11.45;;
72899;SDS011;61043;52.036;5.566;2022-07-19T05:40:09;14.75;;;10.23;;
72899;SDS011;61043;52.036;5.566;2022-07-19T05:42:35;12.23;;;10.43;;
72899;SDS011;61043;52.036;5.566;2022-07-19T05:45:02;12.30;;;9.23;;
72899;SDS011;61043;52.036;5.566;2022-07-19T05:47:29;13.98;;;8.40;;
72899;SDS011;61043;52.036;5.566;2022-07-19T05:49:55;13.35;;;8.40;;
72899;SDS011;61043;52.036;5.566;2022-07-19T05:52:22;14.88;;;8.75;;
72899;SDS011;61043;52.036;5.566;2022-07-19T05:54:52;13.50;;;8.70;;
72899;SDS011;61043;52.036;5.566;2022-07-19T05:57:18;10.32;;;8.52;;
72899;SDS011;61043;52.036;5.566;2022-07-19T05:59:45;17.63;;;9.95;;
72899;SDS011;61043;52.036;5.566;2022-07-19T06:02:11;17.48;;;9.57;;
72899;SDS011;61043;52.036;5.566;2022-07-19T06:04:38;18.02;;;10.38;;
72899;SDS011;61043;52.036;5.566;2022-07-19T06:07:05;20.13;;;10.00;;
72899;SDS011;61043;52.036;5.566;2022-07-19T06:09:31;21.50;;;10.02;;
72899;SDS011;61043;52.036;5.566;2022-07-19T06:11:58;19.65;;;10.18;;
72899;SDS011;61043;52.036;5.566;2022-07-19T06:14:24;16.48;;;9.80;;
72899;SDS011;61043;52.036;5.566;2022-07-19T06:16:51;13.52;;;9.20;;
72899;SDS011;61043;52.036;5.566;2022-07-19T06:19:19;13.07;;;8.60;;
72899;SDS011;61043;52.036;5.566;2022-07-19T06:21:46;19.05;;;8.77;;
72899;SDS011;61043;52.036;5.566;2022-07-19T06:24:12;13.13;;;8.00;;
72899;SDS011;61043;52.036;5.566;2022-07-19T06:26:39;16.50;;;8.48;;
72899;SDS011;61043;52.036;5.566;2022-07-19T06:29:05;15.07;;;8.82;;
72899;SDS011;61043;52.036;5.566;2022-07-19T06:31:32;13.57;;;8.82;;
72899;SDS011;61043;52.036;5.566;2022-07-19T06:33:59;12.57;;;8.48;;
72899;SDS011;61043;52.036;5.566;2022-07-19T06:36:26;13.57;;;9.68;;
72899;SDS011;61043;52.036;5.566;2022-07-19T06:38:53;15.77;;;8.90;;
72899;SDS011;61043;52.036;5.566;2022-07-19T06:41:21;14.27;;;9.05;;
72899;SDS011;61043;52.036;5.566;2022-07-19T06:43:55;17.60;;;9.80;;
72899;SDS011;61043;52.036;5.566;2022-07-19T06:46:22;15.55;;;9.80;;
72899;SDS011;61043;52.036;5.566;2022-07-19T06:48:48;13.75;;;9.57;;
72899;SDS011;61043;52.036;5.566;2022-07-19T06:51:15;16.45;;;9.88;;
72899;SDS011;61043;52.036;5.566;2022-07-19T06:53:42;13.50;;;8.55;;
72899;SDS011;61043;52.036;5.566;2022-07-19T06:56:08;17.13;;;9.77;;
72899;SDS011;61043;52.036;5.566;2022-07-19T06:58:35;13.63;;;8.85;;
72899;SDS011;61043;52.036;5.566;2022-07-19T07:01:07;15.50;;;9.75;;
72899;SDS011;61043;52.036;5.566;2022-07-19T07:03:33;11.23;;;9.38;;
72899;SDS011;61043;52.036;5.566;2022-07-19T07:06:02;12.77;;;9.25;;
72899;SDS011;61043;52.036;5.566;2022-07-19T07:08:29;18.13;;;9.70;;
72899;SDS011;61043;52.036;5.566;2022-07-19T07:10:56;12.13;;;9.02;;
72899;SDS011;61043;52.036;5.566;2022-07-19T07:13:22;14.57;;;10.82;;
72899;SDS011;61043;52.036;5.566;2022-07-19T07:15:50;12.73;;;10.27;;
72899;SDS011;61043;52.036;5.566;2022-07-19T07:18:17;12.75;;;9.82;;
72899;SDS011;61043;52.036;5.566;2022-07-19T07:20:44;14.05;;;10.60;;
72899;SDS011;61043;52.036;5.566;2022-07-19T07:23:11;14.68;;;9.60;;
72899;SDS011;61043;52.036;5.566;2022-07-19T07:25:37;19.70;;;9.93;;
72899;SDS011;61043;52.036;5.566;2022-07-19T07:28:04;13.55;;;10.25;;
72899;SDS011;61043;52.036;5.566;2022-07-19T07:30:31;13.38;;;8.80;;
72899;SDS011;61043;52.036;5.566;2022-07-19T07:32:57;15.35;;;8.55;;
72899;SDS011;61043;52.036;5.566;2022-07-19T07:35:24;15.05;;;8.60;;
72899;SDS011;61043;52.036;5.566;2022-07-19T07:37:51;15.75;;;8.05;;
72899;SDS011;61043;52.036;5.566;2022-07-19T07:40:17;11.07;;;8.27;;
72899;SDS011;61043;52.036;5.566;2022-07-19T07:42:44;18.50;;;7.50;;
72899;SDS011;61043;52.036;5.566;2022-07-19T07:45:10;11.07;;;7.22;;
72899;SDS011;61043;52.036;5.566;2022-07-19T07:47:37;11.77;;;7.85;;
72899;SDS011;61043;52.036;5.566;2022-07-19T07:50:07;11.13;;;7.05;;
72899;SDS011;61043;52.036;5.566;2022-07-19T07:52:35;14.38;;;7.10;;
72899;SDS011;61043;52.036;5.566;2022-07-19T07:55:01;13.00;;;7.25;;
72899;SDS011;61043;52.036;5.566;2022-07-19T07:57:49;13.00;;;7.72;;
72899;SDS011;61043;52.036;5.566;2022-07-19T08:00:15;12.85;;;6.55;;
72899;SDS011;61043;52.036;5.566;2022-07-19T08:02:43;9.63;;;6.47;;
72899;SDS011;61043;52.036;5.566;2022-07-19T08:05:12;10.85;;;6.10;;
72899;SDS011;61043;52.036;5.566;2022-07-19T08:07:39;10.80;;;5.88;;
72899;SDS011;61043;52.036;5.566;2022-07-19T08:10:06;10.18;;;5.38;;
72899;SDS011;61043;52.036;5.566;2022-07-19T08:12:34;10.75;;;5.97;;
72899;SDS011;61043;52.036;5.566;2022-07-19T08:15:01;6.50;;;5.20;;
72899;SDS011;61043;52.036;5.566;2022-07-19T08:17:28;10.32;;;5.53;;
72899;SDS011;61043;52.036;5.566;2022-07-19T08:19:54;13.07;;;5.55;;
72899;SDS011;61043;52.036;5.566;2022-07-19T08:22:21;8.90;;;5.53;;
72899;SDS011;61043;52.036;5.566;2022-07-19T08:24:48;9.48;;;5.50;;
72899;SDS011;61043;52.036;5.566;2022-07-19T08:27:15;11.10;;;5.70;;
72899;SDS011;61043;52.036;5.566;2022-07-19T08:29:42;13.23;;;5.93;;
72899;SDS011;61043;52.036;5.566;2022-07-19T08:32:08;10.77;;;5.68;;
72899;SDS011;61043;52.036;5.566;2022-07-19T08:34:35;9.40;;;5.78;;
72899;SDS011;61043;52.036;5.566;2022-07-19T08:37:01;11.48;;;5.47;;
72899;SDS011;61043;52.036;5.566;2022-07-19T08:39:29;10.05;;;5.80;;
72899;SDS011;61043;52.036;5.566;2022-07-19T08:41:56;10.50;;;5.32;;
72899;SDS011;61043;52.036;5.566;2022-07-19T08:44:23;9.27;;;5.63;;
72899;SDS011;61043;52.036;5.566;2022-07-19T08:46:49;9.00;;;5.25;;
72899;SDS011;61043;52.036;5.566;2022-07-19T08:49:16;10.55;;;5.53;;
72899;SDS011;61043;52.036;5.566;2022-07-19T08:51:44;11.43;;;5.20;;
72899;SDS011;61043;52.036;5.566;2022-07-19T08:54:12;9.57;;;5.47;;
72899;SDS011;61043;52.036;5.566;2022-07-19T08:56:39;10.68;;;5.13;;
72899;SDS011;61043;52.036;5.566;2022-07-19T08:59:24;10.70;;;5.15;;
72899;SDS011;61043;52.036;5.566;2022-07-19T09:01:51;9.60;;;4.80;;
72899;SDS011;61043;52.036;5.566;2022-07-19T09:04:19;9.15;;;5.38;;
72899;SDS011;61043;52.036;5.566;2022-07-19T09:06:48;11.73;;;5.35;;
72899;SDS011;61043;52.036;5.566;2022-07-19T09:09:18;10.02;;;5.25;;
72899;SDS011;61043;52.036;5.566;2022-07-19T09:11:47;9.57;;;5.00;;
72899;SDS011;61043;52.036;5.566;2022-07-19T09:14:17;9.43;;;5.15;;
72899;SDS011;61043;52.036;5.566;2022-07-19T09:16:51;7.82;;;4.95;;
72899;SDS011;61043;52.036;5.566;2022-07-19T09:19:40;10.13;;;4.68;;
72899;SDS011;61043;52.036;5.566;2022-07-19T09:22:08;7.63;;;4.82;;
72899;SDS011;61043;52.036;5.566;2022-07-19T09:24:37;10.23;;;4.83;;
72899;SDS011;61043;52.036;5.566;2022-07-19T09:27:09;10.77;;;5.70;;
72899;SDS011;61043;52.036;5.566;2022-07-19T09:29:38;9.60;;;4.88;;
72899;SDS011;61043;52.036;5.566;2022-07-19T09:34:37;10.25;;;4.60;;
72899;SDS011;61043;52.036;5.566;2022-07-19T09:39:51;8.70;;;4.80;;
72899;SDS011;61043;52.036;5.566;2022-07-19T09:42:23;9.95;;;4.65;;
72899;SDS011;61043;52.036;5.566;2022-07-19T09:44:58;8.52;;;4.28;;
72899;SDS011;61043;52.036;5.566;2022-07-19T09:47:36;9.35;;;4.82;;
72899;SDS011;61043;52.036;5.566;2022-07-19T09:50:06;9.43;;;4.80;;
72899;SDS011;61043;52.036;5.566;2022-07-19T09:52:40;7.47;;;4.68;;
72899;SDS011;61043;52.036;5.566;2022-07-19T09:55:13;9.73;;;4.38;;
72899;SDS011;61043;52.036;5.566;2022-07-19T09:57:47;9.23;;;4.65;;
72899;SDS011;61043;52.036;5.566;2022-07-19T10:00:20;6.60;;;4.45;;
72899;SDS011;61043;52.036;5.566;2022-07-19T10:02:50;8.93;;;4.97;;
72899;SDS011;61043;52.036;5.566;2022-07-19T10:05:22;9.77;;;4.50;;
72899;SDS011;61043;52.036;5.566;2022-07-19T10:07:49;9.15;;;4.78;;
72899;SDS011;61043;52.036;5.566;2022-07-19T10:10:17;8.13;;;4.50;;
72899;SDS011;61043;52.036;5.566;2022-07-19T10:12:45;9.68;;;4.57;;
72899;SDS011;61043;52.036;5.566;2022-07-19T10:15:13;8.20;;;4.57;;
72899;SDS011;61043;52.036;5.566;2022-07-19T10:20:21;7.40;;;4.50;;
72899;SDS011;61043;52.036;5.566;2022-07-19T10:22:49;7.33;;;4.50;;
72899;SDS011;61043;52.036;5.566;2022-07-19T10:25:16;10.40;;;4.60;;
72899;SDS011;61043;52.036;5.566;2022-07-19T10:27:51;8.98;;;4.72;;
72899;SDS011;61043;52.036;5.566;2022-07-19T10:30:37;9.82;;;4.70;;
72899;SDS011;61043;52.036;5.566;2022-07-19T10:33:07;8.35;;;4.50;;
72899;SDS011;61043;52.036;5.566;2022-07-19T10:35:54;9.88;;;4.40;;
72899;SDS011;61043;52.036;5.566;2022-07-19T10:38:21;11.07;;;4.55;;
72899;SDS011;61043;52.036;5.566;2022-07-19T10:40:49;9.38;;;4.70;;
72899;SDS011;61043;52.036;5.566;2022-07-19T10:43:18;8.43;;;4.65;;
72899;SDS011;61043;52.036;5.566;2022-07-19T10:48:34;8.88;;;4.30;;
72899;SDS011;61043;52.036;5.566;2022-07-19T10:51:01;7.13;;;4.50;;
72899;SDS011;61043;52.036;5.566;2022-07-19T10:56:16;8.75;;;4.68;;
72899;SDS011;61043;52.036;5.566;2022-07-19T10:58:48;9.52;;;4.75;;
72899;SDS011;61043;52.036;5.566;2022-07-19T11:01:17;8.55;;;4.50;;
72899;SDS011;61043;52.036;5.566;2022-07-19T11:03:45;8.48;;;4.40;;
72899;SDS011;61043;52.036;5.566;2022-07-19T11:06:18;8.38;;;4.10;;
72899;SDS011;61043;52.036;5.566;2022-07-19T11:08:55;6.93;;;4.30;;
72899;SDS011;61043;52.036;5.566;2022-07-19T11:11:23;9.20;;;4.03;;
72899;SDS011;61043;52.036;5.566;2022-07-19T11:13:53;12.52;;;4.50;;
72899;SDS011;61043;52.036;5.566;2022-07-19T11:16:24;13.13;;;4.18;;
72899;SDS011;61043;52.036;5.566;2022-07-19T11:18:52;8.88;;;4.25;;
72899;SDS011;61043;52.036;5.566;2022-07-19T11:21:32;8.23;;;4.63;;
72899;SDS011;61043;52.036;5.566;2022-07-19T11:24:02;10.07;;;4.55;;
72899;SDS011;61043;52.036;5.566;2022-07-19T11:26:37;10.80;;;4.20;;
72899;SDS011;61043;52.036;5.566;2022-07-19T11:29:12;7.85;;;4.00;;
72899;SDS011;61043;52.036;5.566;2022-07-19T11:31:46;6.65;;;3.90;;
72899;SDS011;61043;52.036;5.566;2022-07-19T11:34:14;7.93;;;4.38;;
72899;SDS011;61043;52.036;5.566;2022-07-19T11:36:41;8.13;;;4.45;;
72899;SDS011;61043;52.036;5.566;2022-07-19T11:39:08;8.68;;;4.10;;
72899;SDS011;61043;52.036;5.566;2022-07-19T11:41:34;7.45;;;4.18;;
72899;SDS011;61043;52.036;5.566;2022-07-19T11:44:02;8.50;;;4.13;;
72899;SDS011;61043;52.036;5.566;2022-07-19T11:46:32;7.57;;;3.95;;
72899;SDS011;61043;52.036;5.566;2022-07-19T11:49:04;6.57;;;3.70;;
72899;SDS011;61043;52.036;5.566;2022-07-19T11:54:01;6.32;;;3.50;;
72899;SDS011;61043;52.036;5.566;2022-07-19T11:56:30;7.07;;;3.70;;
72899;SDS011;61043;52.036;5.566;2022-07-19T11:58:59;10.35;;;4.10;;
72899;SDS011;61043;52.036;5.566;2022-07-19T12:01:29;6.25;;;3.10;;
72899;SDS011;61043;52.036;5.566;2022-07-19T12:04:05;6.68;;;3.75;;
72899;SDS011;61043;52.036;5.566;2022-07-19T12:06:50;4.07;;;3.50;;
72899;SDS011;61043;52.036;5.566;2022-07-19T12:09:19;5.40;;;4.30;;
72899;SDS011;61043;52.036;5.566;2022-07-19T12:11:53;8.32;;;3.85;;
72899;SDS011;61043;52.036;5.566;2022-07-19T12:14:24;4.40;;;2.92;;
72899;SDS011;61043;52.036;5.566;2022-07-19T12:19:45;6.30;;;3.17;;
72899;SDS011;61043;52.036;5.566;2022-07-19T12:22:28;6.65;;;3.10;;
72899;SDS011;61043;52.036;5.566;2022-07-19T12:25:06;7.10;;;3.10;;
72899;SDS011;61043;52.036;5.566;2022-07-19T12:27:34;4.27;;;2.93;;
72899;SDS011;61043;52.036;5.566;2022-07-19T12:30:04;4.68;;;3.33;;
72899;SDS011;61043;52.036;5.566;2022-07-19T12:32:32;5.10;;;3.03;;
72899;SDS011;61043;52.036;5.566;2022-07-19T12:35:09;6.07;;;3.22;;
72899;SDS011;61043;52.036;5.566;2022-07-19T12:37:39;6.63;;;3.40;;
72899;SDS011;61043;52.036;5.566;2022-07-19T12:40:14;5.75;;;3.15;;
72899;SDS011;61043;52.036;5.566;2022-07-19T12:42:47;7.07;;;3.15;;
72899;SDS011;61043;52.036;5.566;2022-07-19T12:45:34;5.50;;;3.95;;
72899;SDS011;61043;52.036;5.566;2022-07-19T12:48:10;6.32;;;3.40;;
72899;SDS011;61043;52.036;5.566;2022-07-19T12:50:39;10.48;;;3.83;;
72899;SDS011;61043;52.036;5.566;2022-07-19T12:53:08;7.60;;;4.00;;
72899;SDS011;61043;52.036;5.566;2022-07-19T12:55:36;4.93;;;3.22;;
72899;SDS011;61043;52.036;5.566;2022-07-19T12:58:05;6.13;;;4.00;;
72899;SDS011;61043;52.036;5.566;2022-07-19T13:00:34;8.15;;;3.47;;
72899;SDS011;61043;52.036;5.566;2022-07-19T13:03:01;6.68;;;3.38;;
72899;SDS011;61043;52.036;5.566;2022-07-19T13:05:29;4.47;;;3.13;;
72899;SDS011;61043;52.036;5.566;2022-07-19T13:07:56;5.03;;;3.60;;
72899;SDS011;61043;52.036;5.566;2022-07-19T13:10:24;8.88;;;4.53;;
72899;SDS011;61043;52.036;5.566;2022-07-19T13:12:53;5.63;;;4.00;;
72899;SDS011;61043;52.036;5.566;2022-07-19T13:15:20;5.95;;;3.60;;
72899;SDS011;61043;52.036;5.566;2022-07-19T13:17:46;9.57;;;4.10;;
72899;SDS011;61043;52.036;5.566;2022-07-19T13:20:13;5.10;;;3.50;;
72899;SDS011;61043;52.036;5.566;2022-07-19T13:22:41;6.85;;;3.90;;
72899;SDS011;61043;52.036;5.566;2022-07-19T13:25:08;6.78;;;4.22;;
72899;SDS011;61043;52.036;5.566;2022-07-19T13:27:56;12.00;;;4.00;;
72899;SDS011;61043;52.036;5.566;2022-07-19T13:30:23;8.65;;;4.47;;
72899;SDS011;61043;52.036;5.566;2022-07-19T13:32:49;9.13;;;3.90;;
72899;SDS011;61043;52.036;5.566;2022-07-19T13:35:17;7.65;;;3.80;;
72899;SDS011;61043;52.036;5.566;2022-07-19T13:37:45;8.68;;;4.20;;
72899;SDS011;61043;52.036;5.566;2022-07-19T13:40:12;6.30;;;3.70;;
72899;SDS011;61043;52.036;5.566;2022-07-19T13:42:40;7.22;;;3.80;;
72899;SDS011;61043;52.036;5.566;2022-07-19T13:45:08;7.70;;;3.80;;
72899;SDS011;61043;52.036;5.566;2022-07-19T13:47:35;9.47;;;4.10;;
72899;SDS011;61043;52.036;5.566;2022-07-19T13:50:07;5.90;;;3.60;;
72899;SDS011;61043;52.036;5.566;2022-07-19T13:52:34;8.77;;;3.38;;
72899;SDS011;61043;52.036;5.566;2022-07-19T13:55:02;9.40;;;3.60;;
72899;SDS011;61043;52.036;5.566;2022-07-19T13:57:29;6.97;;;3.88;;
72899;SDS011;61043;52.036;5.566;2022-07-19T13:59:57;6.95;;;3.75;;
72899;SDS011;61043;52.036;5.566;2022-07-19T14:02:23;7.55;;;3.85;;
72899;SDS011;61043;52.036;5.566;2022-07-19T14:04:50;5.63;;;3.72;;
72899;SDS011;61043;52.036;5.566;2022-07-19T14:07:18;9.93;;;3.80;;
72899;SDS011;61043;52.036;5.566;2022-07-19T14:09:45;11.25;;;4.05;;
72899;SDS011;61043;52.036;5.566;2022-07-19T14:12:11;7.93;;;3.60;;
72899;SDS011;61043;52.036;5.566;2022-07-19T14:14:38;8.85;;;3.80;;
72899;SDS011;61043;52.036;5.566;2022-07-19T14:17:05;7.78;;;3.20;;
72899;SDS011;61043;52.036;5.566;2022-07-19T14:19:32;5.85;;;3.55;;
72899;SDS011;61043;52.036;5.566;2022-07-19T14:22:01;9.20;;;3.30;;
72899;SDS011;61043;52.036;5.566;2022-07-19T14:24:28;6.85;;;3.30;;
72899;SDS011;61043;52.036;5.566;2022-07-19T14:26:55;9.80;;;3.63;;
72899;SDS011;61043;52.036;5.566;2022-07-19T14:29:21;6.53;;;3.40;;
72899;SDS011;61043;52.036;5.566;2022-07-19T14:31:48;6.72;;;3.22;;
72899;SDS011;61043;52.036;5.566;2022-07-19T14:34:15;6.85;;;3.60;;
72899;SDS011;61043;52.036;5.566;2022-07-19T14:37:01;8.35;;;3.70;;
72899;SDS011;61043;52.036;5.566;2022-07-19T14:39:53;8.02;;;3.55;;
72899;SDS011;61043;52.036;5.566;2022-07-19T14:42:20;9.00;;;3.95;;
72899;SDS011;61043;52.036;5.566;2022-07-19T14:44:46;7.43;;;3.60;;
72899;SDS011;61043;52.036;5.566;2022-07-19T14:47:13;7.75;;;3.53;;
72899;SDS011;61043;52.036;5.566;2022-07-19T14:49:40;11.25;;;3.67;;
72899;SDS011;61043;52.036;5.566;2022-07-19T14:52:06;6.80;;;3.60;;
72899;SDS011;61043;52.036;5.566;2022-07-19T14:54:33;6.15;;;3.33;;
72899;SDS011;61043;52.036;5.566;2022-07-19T14:57:00;13.65;;;3.80;;
72899;SDS011;61043;52.036;5.566;2022-07-19T14:59:29;6.43;;;3.90;;
72899;SDS011;61043;52.036;5.566;2022-07-19T15:01:56;7.78;;;3.80;;
72899;SDS011;61043;52.036;5.566;2022-07-19T15:04:23;7.03;;;3.50;;